Oketo, KS

7:03 AM CDT on August 25, 2019 (GMT -0500)
Marysville | | Change Station
Active Advisory: Flood Warning

Elev 1194 ft 39.84 °N, 96.64 °W | Updated 16 seconds ago

Overcast
Overcast
65.7 °F
Feels Like 65.7 °F
N
3
Wind Variable Wind from ESE
Gusts 4.0 mph

Today
High -- | Low -- °F
--% Chance of Precip.
Yesterday
High -- | Low -- °F
Precip. -- in
Pressure 29.91 in
Visibility 10.0 miles
Clouds Overcast 1000 ft
Dew Point 64 °F
Humidity 96%
Rainfall 0.00 in
Snow Depth Not available.
6:47 AM 8:08 PM
Waning Crescent, 31% visible
METAR KBIE 251155Z AUTO 08005KT 10SM OVC010 19/18 A2991 RMK AO2 LTG DSNT SE 70003 T01920180 10201 20192
Pressure 29.91 in
Visibility 10.0 miles
Clouds Overcast 1000 ft
Dew Point 64 °F
Humidity 96%
Rainfall 0.00 in
Snow Depth Not available.
6:47 AM 8:08 PM
Waning Crescent, 31% visible
METAR KBIE 251155Z AUTO 08005KT 10SM OVC010 19/18 A2991 RMK AO2 LTG DSNT SE 70003 T01920180 10201 20192

Get Your Daily Forecast Email!

Thanks for signing up!

Be on the lookout for a verification email in your inbox.

You'll start receiving severe weather alerts in your inbox..

×

10-Day Weather Forecast

Almanac

Astronomy

Aug. 25, 2019 Rise Set
Actual Time
Civil Twilight
Nautical Twilight
Astronomical Twilight
Moon
Length of Visible Light
Length of Day
Tomorrow will be .
, % of the Moon is Illuminated

Today's Extremes

State Highs State Lows

Community

WunderPhotos

Category 6

Welcome to Category 6. This is the collective home for Weather Underground's featured writeups by Dr. Jeff Masters (right), Bob Henson (left), Chris Burt, and other regular contributors.

Nearby

Air Quality

  Air Quality AQ Index Pollutant
Not available.

Snow Depth

Station Depth Elevation

Earthquake Activity

City Distance Mag. Time & Date
Minimum magnitude displayed is 2.5.

Coastal Water Temperatures

Place Temperature

Stations

Nearby Weather Stations

Station Location Temp. Windchill Dew Point Humidity Wind Precip. Elev Updated Type
                   

Watches & Warnings

Flood Warning
Issued: 11:52 PM CDT Aug. 24, 2019 – National Weather Service

The Flood Warning continues for
the big Blue River near Blue Rapids.
* Until further notice.
* At 11:15 PM Saturday the stage was 39.9 feet.
* Flood stage is 26.0 feet.
* Minor flooding is occurring and minor flooding is forecast.
* Forecast... the river will remain steady near 39.9 feet through
Sunday and into the upcoming week.
* Impact... at 26.0 feet... minor lowland flooding occurs from
Marysville to Tuttle Creek Lake.


Lat... Lon 3971 9666 3968 9658 3957 9655 3957 9659 3968 9669